Time;durP1;ratioP1;P1;durP2;ratioP2;P2;SDS_P1;SDS_P2;PMS_P1;PMS_P2;Temp;Humidity;BMP_temperature;BMP_pressure;BME280_temperature;BME280_humidity;BME280_pressure;Samples;Min_cycle;Max_cycle;Signal;HPM_P1;HPM_P2
2023/10/12 00:01:58;;;;;;;6.80;5.60;;;22.40;57.10;;;;;;4995028;28;20407;-67
2023/10/12 00:04:28;;;;;;;4.47;3.50;;;22.40;57.10;;;;;;4995022;28;20420;-67
2023/10/12 00:06:58;;;;;;;4.70;3.97;;;22.40;57.10;;;;;;4995301;28;20408;-67
2023/10/12 00:09:27;;;;;;;6.43;4.53;;;22.40;57.10;;;;;;4994864;28;20412;-67
2023/10/12 00:12:07;;;;;;;6.20;4.23;;;22.40;57.00;;;;;;4995010;28;20424;-67
2023/10/12 00:14:34;;;;;;;7.17;4.57;;;22.30;57.00;;;;;;4995200;28;20439;-67
2023/10/12 00:17:00;;;;;;;6.33;4.40;;;22.40;57.00;;;;;;4995059;28;20469;-66
2023/10/12 00:19:26;;;;;;;5.70;3.93;;;22.40;57.00;;;;;;4994968;28;20775;-68
2023/10/12 00:22:00;;;;;;;5.77;4.20;;;22.40;57.00;;;;;;4995013;28;20560;-67
2023/10/12 00:24:26;;;;;;;6.60;4.43;;;22.30;56.90;;;;;;4994560;28;20487;-67
2023/10/12 00:26:53;;;;;;;6.80;5.00;;;22.30;56.90;;;;;;4994753;28;20408;-66
2023/10/12 00:29:18;;;;;;;10.10;4.53;;;22.30;56.90;;;;;;4994257;28;20423;-66
2023/10/12 00:31:47;;;;;;;6.50;4.47;;;22.30;56.90;;;;;;4994422;28;20412;-67
2023/10/12 00:34:14;;;;;;;6.27;4.53;;;22.30;56.90;;;;;;4994494;28;20470;-67
2023/10/12 00:36:41;;;;;;;8.87;5.10;;;22.30;57.00;;;;;;4994245;28;20941;-67
2023/10/12 00:39:11;;;;;;;7.13;4.43;;;22.30;57.10;;;;;;4994391;28;20925;-66
2023/10/12 00:41:37;;;;;;;5.77;4.63;;;22.30;57.00;;;;;;4994163;28;20467;-66
2023/10/12 00:49:19;;;;;;;4.80;4.00;;;22.30;57.00;;;;;;4994146;28;20409;-66
2023/10/12 00:51:52;;;;;;;4.90;3.80;;;22.30;57.00;;;;;;4993855;28;20400;-67
2023/10/12 00:54:32;;;;;;;5.07;4.50;;;22.30;57.10;;;;;;4993498;28;20545;-67
2023/10/12 00:57:02;;;;;;;5.40;3.90;;;22.30;57.10;;;;;;4993061;28;20400;-66
2023/10/12 00:59:31;;;;;;;4.73;4.33;;;22.30;57.10;;;;;;4993624;28;20502;-67
2023/10/12 01:02:11;;;;;;;5.10;4.43;;;22.30;57.20;;;;;;4993624;28;20412;-66
2023/10/12 01:04:41;;;;;;;5.40;4.50;;;22.30;57.20;;;;;;4993326;28;20439;-66
2023/10/12 01:07:19;;;;;;;6.93;4.20;;;22.30;57.20;;;;;;4993630;28;20513;-66
2023/10/12 01:09:51;;;;;;;5.60;4.00;;;22.30;57.20;;;;;;4993433;28;20409;-68
2023/10/12 01:12:17;;;;;;;6.80;4.53;;;22.30;57.30;;;;;;4993063;28;20878;-67
2023/10/12 01:14:54;;;;;;;6.97;4.43;;;22.40;57.30;;;;;;4993334;28;20479;-67
2023/10/12 01:17:29;;;;;;;5.43;4.20;;;22.40;57.30;;;;;;4993515;28;20781;-66
2023/10/12 01:19:56;;;;;;;5.77;3.40;;;22.40;57.40;;;;;;4994223;28;20455;-65
2023/10/12 01:22:31;;;;;;;5.63;3.97;;;22.40;57.40;;;;;;4993706;28;20496;-66
2023/10/12 01:24:59;;;;;;;5.60;4.23;;;22.40;57.40;;;;;;4993858;28;20477;-66
2023/10/12 01:27:26;;;;;;;4.93;3.60;;;22.30;57.30;;;;;;4993932;28;20444;-67
2023/10/12 01:29:53;;;;;;;3.40;3.10;;;22.40;57.40;;;;;;4993908;28;20514;-67
2023/10/12 01:35:02;;;;;;;4.73;3.80;;;22.40;57.40;;;;;;4993483;28;20944;-67
2023/10/12 01:37:41;;;;;;;5.20;4.07;;;22.40;57.70;;;;;;4993762;28;20512;-66
2023/10/12 01:40:15;;;;;;;5.10;4.00;;;22.40;57.40;;;;;;4992943;28;20476;-67
2023/10/12 01:45:18;;;;;;;5.43;3.47;;;22.40;57.40;;;;;;4993794;28;20482;-67
2023/10/12 01:47:45;;;;;;;5.00;3.90;;;22.40;57.40;;;;;;4993716;28;20633;-66
2023/10/12 01:50:11;;;;;;;4.07;3.67;;;22.40;57.40;;;;;;4993463;28;20424;-67
2023/10/12 01:52:37;;;;;;;5.60;4.30;;;22.40;57.40;;;;;;4993216;28;20435;-66
2023/10/12 01:55:16;;;;;;;6.00;3.20;;;22.40;57.40;;;;;;4993184;28;20428;-66
2023/10/12 01:57:54;;;;;;;4.27;3.87;;;22.40;57.40;;;;;;4993180;28;20404;-67
2023/10/12 02:00:28;;;;;;;3.77;3.40;;;22.40;57.40;;;;;;4992898;28;20458;-67
2023/10/12 02:03:05;;;;;;;3.23;2.90;;;22.40;57.40;;;;;;4992804;28;20400;-66
2023/10/12 02:05:34;;;;;;;4.13;3.73;;;22.40;57.40;;;;;;4976617;28;20531;-67
2023/10/12 02:08:05;;;;;;;6.50;3.50;;;22.40;57.40;;;;;;4992838;28;20944;-67
2023/10/12 02:10:41;;;;;;;6.33;3.70;;;22.40;57.40;;;;;;4992665;28;20431;-65
2023/10/12 02:13:07;;;;;;;5.60;4.03;;;22.40;57.40;;;;;;4992768;28;20415;-67
2023/10/12 02:15:32;;;;;;;4.50;3.80;;;22.40;57.40;;;;;;4992643;28;20439;-66
2023/10/12 02:17:59;;;;;;;4.87;3.57;;;22.40;57.40;;;;;;4992683;28;20423;-66
2023/10/12 02:20:32;;;;;;;4.57;3.40;;;22.40;57.40;;;;;;4992522;28;20204;-67
2023/10/12 02:23:01;;;;;;;13.70;5.90;;;22.40;57.40;;;;;;4992540;28;20393;-66
2023/10/12 02:25:28;;;;;;;6.97;3.70;;;22.50;57.50;;;;;;4992773;28;20436;-66
2023/10/12 02:27:58;;;;;;;7.83;3.03;;;22.40;57.40;;;;;;4992633;28;20462;-67
2023/10/12 02:30:35;;;;;;;4.80;4.13;;;22.50;57.50;;;;;;4992676;28;20946;-67
2023/10/12 02:33:07;;;;;;;3.70;3.40;;;22.50;57.50;;;;;;4992752;28;20426;-67
2023/10/12 02:35:44;;;;;;;4.80;3.70;;;22.40;57.40;;;;;;4992511;28;20574;-67
2023/10/12 02:38:15;;;;;;;4.00;3.60;;;22.50;57.50;;;;;;4992901;28;20912;-66
2023/10/12 02:40:43;;;;;;;4.57;3.70;;;22.50;57.50;;;;;;4992367;28;20867;-67
2023/10/12 02:43:10;;;;;;;5.10;3.80;;;22.50;57.60;;;;;;4992713;28;20416;-67
2023/10/12 02:45:41;;;;;;;5.03;4.47;;;22.50;57.50;;;;;;4992380;28;20486;-66
2023/10/12 02:48:23;;;;;;;6.17;4.20;;;22.50;57.50;;;;;;4992622;28;20759;-65
2023/10/12 02:50:58;;;;;;;5.10;3.90;;;22.50;57.50;;;;;;4992274;28;20479;-66
2023/10/12 02:53:34;;;;;;;3.97;3.53;;;22.50;57.50;;;;;;4995708;28;20403;-67
2023/10/12 02:56:04;;;;;;;4.97;3.90;;;22.50;57.50;;;;;;4996134;28;20388;-66
2023/10/12 02:58:31;;;;;;;3.93;3.20;;;22.50;57.50;;;;;;4996017;28;20412;-66
2023/10/12 03:01:22;;;;;;;4.87;3.60;;;22.50;57.50;;;;;;4996056;28;20471;-66
2023/10/12 03:03:52;;;;;;;4.53;3.60;;;22.50;57.60;;;;;;4995505;28;20436;-67
2023/10/12 03:06:24;;;;;;;4.50;3.73;;;22.50;57.60;;;;;;4996367;28;20393;-65
2023/10/12 03:09:14;;;;;;;3.30;2.87;;;22.50;57.60;;;;;;4995999;28;20400;-67
2023/10/12 03:11:42;;;;;;;4.50;3.43;;;22.50;57.60;;;;;;4998864;28;20785;-66
2023/10/12 03:14:18;;;;;;;4.70;3.13;;;22.50;57.60;;;;;;5035534;28;20496;-67
2023/10/12 03:16:44;;;;;;;5.07;3.67;;;22.50;57.60;;;;;;5035797;28;20475;-66
2023/10/12 03:19:23;;;;;;;4.80;3.17;;;22.50;57.60;;;;;;5035508;28;20779;-66
2023/10/12 03:21:51;;;;;;;5.40;3.87;;;22.50;57.60;;;;;;5035581;28;20454;-66
2023/10/12 03:24:38;;;;;;;3.80;2.93;;;22.50;57.60;;;;;;5034990;28;20430;-67
2023/10/12 03:29:29;;;;;;;4.97;3.17;;;22.50;57.60;;;;;;5035510;28;20497;-67
2023/10/12 03:31:57;;;;;;;3.80;3.33;;;22.50;57.60;;;;;;5035567;28;20214;-66
2023/10/12 03:36:59;;;;;;;3.40;3.10;;;22.50;57.60;;;;;;5035738;28;20495;-66
2023/10/12 03:39:27;;;;;;;5.07;3.80;;;22.50;57.60;;;;;;5035300;28;20420;-67
2023/10/12 03:47:30;;;;;;;4.23;3.70;;;22.50;57.60;;;;;;5035102;28;20451;-67
2023/10/12 03:50:00;;;;;;;3.30;3.00;;;22.50;57.60;;;;;;5034586;28;20501;-66
2023/10/12 03:52:29;;;;;;;3.30;2.90;;;22.50;57.60;;;;;;5034767;28;20801;-67
2023/10/12 03:55:16;;;;;;;4.40;3.50;;;22.50;57.60;;;;;;5034748;28;20452;-66
2023/10/12 03:57:50;;;;;;;5.37;3.57;;;22.50;58.10;;;;;;5034884;28;20430;-67
2023/10/12 04:13:13;;;;;;;4.93;3.77;;;22.50;57.60;;;;;;5034591;28;20414;-66
2023/10/12 04:18:32;;;;;;;3.60;3.07;;;22.50;57.70;;;;;;5034238;28;20433;-67
2023/10/12 04:20:58;;;;;;;3.73;2.97;;;22.50;57.70;;;;;;5034011;28;20924;-67
2023/10/12 04:28:57;;;;;;;3.87;3.20;;;22.50;57.70;;;;;;5003538;28;20830;-66
2023/10/12 04:34:08;;;;;;;3.80;3.00;;;22.50;57.70;;;;;;5034040;28;20804;-66
2023/10/12 04:39:36;;;;;;;4.03;3.17;;;22.50;57.70;;;;;;5033673;28;20155;-67
2023/10/12 04:42:06;;;;;;;3.93;3.20;;;22.50;57.70;;;;;;5032868;28;20426;-65
2023/10/12 04:47:23;;;;;;;3.53;3.10;;;22.50;57.70;;;;;;5033505;28;20907;-66
2023/10/12 04:52:17;;;;;;;3.20;2.87;;;22.50;57.70;;;;;;5033248;28;20406;-66
2023/10/12 04:57:16;;;;;;;4.50;3.50;;;22.60;57.80;;;;;;5033285;28;20414;-66
2023/10/12 05:05:14;;;;;;;4.20;3.10;;;22.60;57.80;;;;;;5033553;28;20509;-68
2023/10/12 05:09:50;;;;;;;3.70;3.10;;;22.60;57.80;;;;;;5033648;28;20448;-66
2023/10/12 05:12:25;;;;;;;4.33;3.00;;;22.50;57.70;;;;;;5034249;28;20175;-67
2023/10/12 05:14:55;;;;;;;4.23;3.33;;;22.60;57.80;;;;;;5033599;28;20888;-67
2023/10/12 05:17:24;;;;;;;5.03;3.00;;;22.60;57.90;;;;;;5033862;28;20406;-66
2023/10/12 05:19:52;;;;;;;4.30;3.30;;;22.60;57.80;;;;;;5034110;28;20406;-67
2023/10/12 05:22:19;;;;;;;4.43;3.40;;;22.60;57.80;;;;;;5033967;28;20903;-67
2023/10/12 05:24:46;;;;;;;3.80;3.30;;;22.60;57.80;;;;;;5034210;28;20418;-65
2023/10/12 05:27:26;;;;;;;3.30;2.53;;;22.60;57.80;;;;;;5033858;28;20417;-66
2023/10/12 05:29:59;;;;;;;4.37;3.30;;;22.60;57.80;;;;;;5034056;28;20468;-66
2023/10/12 05:32:37;;;;;;;7.63;3.40;;;22.60;57.80;;;;;;5034030;28;20402;-66
2023/10/12 05:35:06;;;;;;;4.20;3.10;;;22.60;57.80;;;;;;5033905;28;20804;-65
2023/10/12 05:37:38;;;;;;;4.00;3.00;;;22.60;57.90;;;;;;5033858;28;20421;-67
2023/10/12 05:40:10;;;;;;;4.27;3.13;;;22.60;57.90;;;;;;5033630;28;20965;-65
2023/10/12 05:42:39;;;;;;;4.23;2.93;;;22.60;57.80;;;;;;5033788;28;20395;-66
2023/10/12 05:45:51;;;;;;;4.13;3.10;;;22.60;57.80;;;;;;5033588;28;20429;-66
2023/10/12 05:47:52;;;;;;;3.10;2.73;;;22.60;57.90;;;;;;5016039;28;20435;-66
2023/10/12 05:50:23;;;;;;;4.83;3.10;;;22.60;57.90;;;;;;5033640;28;20430;-65
2023/10/12 05:52:52;;;;;;;3.83;3.40;;;22.60;57.90;;;;;;5033788;28;20876;-65
2023/10/12 05:55:21;;;;;;;3.80;3.50;;;22.60;57.90;;;;;;5033414;28;20443;-66
2023/10/12 05:57:49;;;;;;;5.57;3.70;;;22.60;57.80;;;;;;5033585;28;20415;-66
2023/10/12 06:00:34;;;;;;;5.20;3.37;;;22.60;57.80;;;;;;5015711;28;20871;-65
2023/10/12 06:03:00;;;;;;;4.93;3.60;;;22.60;57.70;;;;;;5033595;28;20422;-67
2023/10/12 06:05:26;;;;;;;4.07;2.83;;;22.60;57.70;;;;;;5033208;28;20429;-66
2023/10/12 06:08:00;;;;;;;5.07;3.00;;;22.60;57.60;;;;;;5033216;28;20168;-65
2023/10/12 06:10:29;;;;;;;5.80;4.23;;;22.60;57.60;;;;;;5033017;28;20254;-65
2023/10/12 06:12:56;;;;;;;6.90;4.33;;;22.60;57.50;;;;;;5032972;28;20802;-66
2023/10/12 06:15:25;;;;;;;5.57;4.40;;;22.60;57.50;;;;;;5032973;28;20572;-66
2023/10/12 06:17:55;;;;;;;8.27;3.90;;;22.60;57.40;;;;;;5033037;28;20402;-67
2023/10/12 06:20:31;;;;;;;4.50;3.83;;;22.60;57.40;;;;;;5032777;28;20447;-67
2023/10/12 06:22:57;;;;;;;7.73;3.43;;;22.60;57.30;;;;;;5032525;28;20386;-67
2023/10/12 06:25:23;;;;;;;4.33;3.83;;;22.60;57.30;;;;;;5033040;28;20437;-66
2023/10/12 06:27:49;;;;;;;6.90;4.13;;;22.60;57.40;;;;;;5035435;28;20168;-65
2023/10/12 06:30:18;;;;;;;5.20;3.87;;;22.60;57.40;;;;;;5036427;28;20418;-67
2023/10/12 06:32:47;;;;;;;6.00;4.03;;;22.60;57.40;;;;;;5036599;28;20742;-67
2023/10/12 06:35:15;;;;;;;5.20;3.73;;;22.60;57.50;;;;;;5036753;28;20544;-65
2023/10/12 06:37:49;;;;;;;4.20;3.80;;;22.60;57.50;;;;;;5036966;28;20844;-66
2023/10/12 06:45:48;;;;;;;5.90;4.03;;;22.60;57.60;;;;;;5036330;28;20375;-66
2023/10/12 06:51:02;;;;;;;5.97;3.80;;;22.60;57.60;;;;;;5036970;28;20402;-66
2023/10/12 06:53:35;;;;;;;4.33;3.90;;;22.60;57.60;;;;;;5036756;28;20441;-65
2023/10/12 06:56:24;;;;;;;7.00;3.27;;;22.60;57.60;;;;;;5036612;28;20414;-64
2023/10/12 06:59:36;;;;;;;5.53;4.13;;;22.60;57.70;;;;;;5036273;28;20401;-66
2023/10/12 07:01:51;;;;;;;4.03;3.40;;;22.60;57.70;;;;;;5025836;28;20485;-66
2023/10/12 07:04:38;;;;;;;6.23;4.27;;;22.60;57.70;;;;;;5036655;28;20808;-67
2023/10/12 07:07:07;;;;;;;7.17;4.13;;;22.60;57.70;;;;;;5036696;28;20403;-65
2023/10/12 07:09:40;;;;;;;4.27;3.57;;;22.60;57.70;;;;;;5037003;28;20442;-66
2023/10/12 07:12:12;;;;;;;5.33;3.80;;;22.60;57.70;;;;;;5036583;28;20402;-64
2023/10/12 07:14:43;;;;;;;4.30;3.40;;;22.60;57.70;;;;;;5036196;28;20468;-67
2023/10/12 07:17:08;;;;;;;5.27;4.00;;;22.60;57.70;;;;;;5036044;28;20405;-64
2023/10/12 07:19:46;;;;;;;5.57;4.10;;;22.70;57.80;;;;;;5036555;28;20422;-65
2023/10/12 07:22:15;;;;;;;4.93;3.30;;;22.70;57.80;;;;;;5036547;28;20251;-67
2023/10/12 07:24:42;;;;;;;4.77;3.80;;;22.70;57.80;;;;;;5036471;28;20434;-66
2023/10/12 07:27:50;;;;;;;4.90;4.27;;;22.70;57.80;;;;;;5035658;28;20410;-66
2023/10/12 07:30:10;;;;;;;3.90;3.50;;;22.70;57.80;;;;;;5031398;28;20414;-67
2023/10/12 07:32:40;;;;;;;4.60;3.40;;;22.60;57.70;;;;;;5035793;28;20390;-66
2023/10/12 07:35:17;;;;;;;5.13;3.47;;;22.70;57.80;;;;;;5035481;28;20871;-66
2023/10/12 07:37:43;;;;;;;6.73;3.80;;;22.70;57.80;;;;;;5035653;28;20410;-65
2023/10/12 07:40:17;;;;;;;4.37;3.83;;;22.70;57.80;;;;;;5017065;28;20511;-66
2023/10/12 07:42:46;;;;;;;4.73;3.80;;;22.70;57.80;;;;;;5036111;28;20386;-65
2023/10/12 07:45:16;;;;;;;4.60;3.63;;;22.70;57.80;;;;;;5035655;28;20446;-67
2023/10/12 07:47:42;;;;;;;5.43;4.33;;;22.70;57.80;;;;;;5035541;28;20459;-65
2023/10/12 07:50:12;;;;;;;3.60;3.20;;;22.70;57.80;;;;;;5035629;28;20422;-65
2023/10/12 07:52:39;;;;;;;3.77;3.43;;;22.70;57.80;;;;;;5035281;28;20391;-67
2023/10/12 07:55:12;;;;;;;4.73;3.37;;;22.70;57.80;;;;;;5035209;28;20434;-65
2023/10/12 07:57:38;;;;;;;4.63;3.70;;;22.70;57.80;;;;;;5035424;28;20433;-65
2023/10/12 08:15:55;;;;;;;4.27;3.30;;;22.70;57.80;;;;;;5034953;28;20406;-66
2023/10/12 08:23:50;;;;;;;4.07;3.67;;;22.70;57.90;;;;;;5034910;28;20430;-67
2023/10/12 08:29:09;;;;;;;3.80;3.50;;;22.70;57.90;;;;;;5034593;28;20437;-67
2023/10/12 08:31:43;;;;;;;5.40;3.13;;;22.70;57.90;;;;;;5034533;28;20409;-65
2023/10/12 08:39:38;;;;;;;5.47;3.83;;;22.70;57.90;;;;;;5034465;28;20399;-66
2023/10/12 08:44:51;;;;;;;3.90;3.07;;;22.70;57.90;;;;;;5034874;28;20479;-65
2023/10/12 08:47:26;;;;;;;4.30;3.37;;;22.70;57.90;;;;;;5034407;28;20501;-66
2023/10/12 08:49:53;;;;;;;4.37;3.27;;;22.70;57.90;;;;;;5033779;28;20394;-66
2023/10/12 08:52:27;;;;;;;5.40;3.80;;;22.70;57.90;;;;;;5034692;28;20481;-66
2023/10/12 08:55:03;;;;;;;4.37;3.47;;;22.70;57.90;;;;;;5034258;28;20929;-65
2023/10/12 08:58:11;;;;;;;4.70;3.23;;;22.70;57.90;;;;;;5034440;28;20929;-66
2023/10/12 09:00:39;;;;;;;5.20;3.23;;;22.70;57.90;;;;;;5017627;28;20450;-66
2023/10/12 09:05:41;;;;;;;4.40;3.50;;;22.70;57.90;;;;;;5033720;28;20407;-67
2023/10/12 09:08:39;;;;;;;5.40;3.13;;;22.70;57.90;;;;;;5033482;28;20413;-64
2023/10/12 09:10:56;;;;;;;4.77;3.57;;;22.70;57.90;;;;;;5033307;28;20422;-66
2023/10/12 09:13:25;;;;;;;3.33;3.03;;;22.70;57.90;;;;;;5033355;28;20414;-66
2023/10/12 09:15:56;;;;;;;3.87;3.47;;;22.70;57.90;;;;;;5033297;28;20472;-66
2023/10/12 09:18:29;;;;;;;4.63;3.77;;;22.70;57.90;;;;;;5033474;28;20814;-66
2023/10/12 09:31:26;;;;;;;3.43;3.13;;;22.70;57.90;;;;;;5033634;28;20489;-66
2023/10/12 09:36:26;;;;;;;3.73;3.33;;;22.80;57.90;;;;;;5032786;28;20450;-66
2023/10/12 09:38:55;;;;;;;4.87;3.60;;;22.80;57.90;;;;;;5032945;28;20414;-66
2023/10/12 09:41:27;;;;;;;3.17;2.87;;;22.70;57.90;;;;;;5032715;28;20453;-66
2023/10/12 09:43:56;;;;;;;6.53;3.43;;;22.80;57.90;;;;;;5033253;28;21012;-65
2023/10/12 09:46:27;;;;;;;5.50;3.63;;;22.80;57.90;;;;;;5033444;28;20501;-66
2023/10/12 09:49:06;;;;;;;5.13;3.70;;;22.80;57.90;;;;;;5033008;28;20391;-68
2023/10/12 09:51:45;;;;;;;3.90;3.20;;;22.80;57.90;;;;;;5032784;28;20425;-63
2023/10/12 09:54:19;;;;;;;4.13;3.20;;;22.80;57.90;;;;;;5015465;28;20472;-66
2023/10/12 09:56:57;;;;;;;4.20;3.70;;;22.80;57.90;;;;;;5032798;28;20424;-66
2023/10/12 09:59:23;;;;;;;3.33;2.80;;;22.80;57.90;;;;;;5033007;28;20407;-66
2023/10/12 10:01:50;;;;;;;3.83;3.53;;;22.80;57.90;;;;;;5032329;28;20461;-67
2023/10/12 10:09:48;;;;;;;3.50;3.00;;;22.80;57.90;;;;;;5032670;28;20437;-66
2023/10/12 10:12:20;;;;;;;4.17;3.27;;;22.80;57.90;;;;;;5032464;28;20474;-67
2023/10/12 10:14:52;;;;;;;3.90;2.87;;;22.80;57.90;;;;;;5032348;28;20480;-65
2023/10/12 10:17:32;;;;;;;5.10;3.50;;;22.80;57.90;;;;;;5032468;28;20463;-67
2023/10/12 10:23:00;;;;;;;6.40;3.20;;;22.80;57.90;;;;;;5032940;28;20399;-66
2023/10/12 10:25:35;;;;;;;3.50;2.77;;;22.80;57.90;;;;;;5032662;28;20528;-63
2023/10/12 10:28:10;;;;;;;4.60;3.10;;;22.80;57.90;;;;;;5031959;28;20402;-64
2023/10/12 10:30:46;;;;;;;4.30;3.00;;;22.80;57.90;;;;;;5032292;28;20409;-67
2023/10/12 10:33:13;;;;;;;3.93;3.13;;;22.80;57.90;;;;;;5031949;28;20413;-67
2023/10/12 10:35:57;;;;;;;7.83;3.57;;;22.80;57.90;;;;;;5014687;28;20435;-68
2023/10/12 10:38:34;;;;;;;4.43;3.40;;;22.80;57.80;;;;;;5032651;28;20426;-66
2023/10/12 10:41:07;;;;;;;4.53;3.47;;;22.80;57.90;;;;;;5032318;28;20446;-65
2023/10/12 10:43:37;;;;;;;3.50;3.20;;;22.80;57.90;;;;;;5032658;28;20422;-67
2023/10/12 10:46:06;;;;;;;3.77;3.03;;;22.70;57.80;;;;;;5032446;28;20480;-67
2023/10/12 10:48:34;;;;;;;3.20;2.90;;;22.80;57.90;;;;;;5032277;28;20472;-66
2023/10/12 10:51:07;;;;;;;3.37;3.07;;;22.80;57.90;;;;;;5031985;28;20418;-65
2023/10/12 10:53:36;;;;;;;4.23;3.50;;;22.80;57.80;;;;;;5032081;28;20426;-66
2023/10/12 10:56:15;;;;;;;3.70;2.80;;;22.80;57.90;;;;;;5031728;28;20417;-67
2023/10/12 10:58:45;;;;;;;3.90;3.50;;;22.80;57.80;;;;;;5032234;28;20425;-68
2023/10/12 11:01:15;;;;;;;4.60;3.80;;;22.80;57.90;;;;;;5032142;28;20468;-67
2023/10/12 11:03:42;;;;;;;3.57;3.27;;;22.80;57.90;;;;;;5031853;28;20426;-65
2023/10/12 11:06:21;;;;;;;3.50;3.20;;;22.80;57.90;;;;;;5032260;28;20520;-66
2023/10/12 11:09:02;;;;;;;5.93;3.90;;;22.80;57.80;;;;;;5032015;28;20502;-65
2023/10/12 11:11:37;;;;;;;4.40;3.73;;;22.80;57.90;;;;;;5032539;28;20398;-66
2023/10/12 11:14:04;;;;;;;4.63;3.10;;;22.80;57.90;;;;;;5034746;28;20491;-67
2023/10/12 11:16:29;;;;;;;3.27;2.70;;;22.70;57.80;;;;;;5035759;28;20445;-65
2023/10/12 11:18:57;;;;;;;4.07;3.67;;;22.80;57.90;;;;;;5017903;28;20838;-67
2023/10/12 11:21:25;;;;;;;3.60;2.83;;;22.80;57.90;;;;;;5035271;28;20199;-65
2023/10/12 11:23:57;;;;;;;4.30;3.90;;;22.80;57.90;;;;;;5035738;28;20938;-67
2023/10/12 11:26:22;;;;;;;4.10;3.20;;;22.70;57.80;;;;;;5035588;28;20398;-66
2023/10/12 11:29:04;;;;;;;3.33;2.90;;;22.80;57.90;;;;;;5035536;28;20414;-68
2023/10/12 11:31:30;;;;;;;4.30;3.90;;;22.70;57.80;;;;;;5035482;28;20195;-66
2023/10/12 11:33:57;;;;;;;3.77;2.87;;;22.70;57.80;;;;;;5035674;28;20448;-66
2023/10/12 11:36:23;;;;;;;5.63;3.50;;;22.70;57.80;;;;;;5035245;28;21002;-66
2023/10/12 11:39:18;;;;;;;3.97;3.33;;;22.70;57.80;;;;;;5035187;28;20422;-66
2023/10/12 11:42:06;;;;;;;4.60;4.20;;;22.80;58.40;;;;;;5035083;28;20543;-66
2023/10/12 11:44:33;;;;;;;4.00;3.53;;;22.70;57.80;;;;;;5035132;28;20829;-66
2023/10/12 11:47:01;;;;;;;3.60;3.23;;;22.70;57.80;;;;;;5034937;28;20475;-65
2023/10/12 11:49:26;;;;;;;4.13;3.30;;;22.70;57.80;;;;;;5035031;28;20463;-67
2023/10/12 11:51:53;;;;;;;5.20;3.07;;;22.70;57.90;;;;;;5035037;28;20410;-66
2023/10/12 11:54:24;;;;;;;3.77;3.00;;;22.70;57.80;;;;;;5034733;28;20199;-66
2023/10/12 11:56:50;;;;;;;5.00;3.37;;;22.70;57.80;;;;;;5035133;28;20417;-65
2023/10/12 11:59:31;;;;;;;3.60;3.20;;;22.70;57.90;;;;;;5035056;28;20915;-68
2023/10/12 12:02:03;;;;;;;3.37;3.07;;;22.70;57.80;;;;;;5035018;28;20695;-66
2023/10/12 12:04:39;;;;;;;4.73;3.50;;;22.70;57.90;;;;;;5034876;28;20989;-66
2023/10/12 12:07:05;;;;;;;3.87;3.43;;;22.70;57.90;;;;;;5034841;28;20545;-64
2023/10/12 12:09:31;;;;;;;3.43;3.13;;;22.70;57.90;;;;;;5034573;28;20421;-66
2023/10/12 12:11:57;;;;;;;4.10;3.40;;;22.70;57.90;;;;;;5034750;28;20418;-67
2023/10/12 12:14:23;;;;;;;3.30;2.90;;;22.70;57.90;;;;;;5034374;28;20273;-66
2023/10/12 12:16:48;;;;;;;4.20;3.00;;;22.70;57.90;;;;;;5034747;28;20411;-64
2023/10/12 12:19:19;;;;;;;4.20;3.20;;;22.70;57.80;;;;;;5034517;28;20672;-66
2023/10/12 12:21:46;;;;;;;3.03;2.73;;;22.70;57.80;;;;;;5034320;28;20195;-65
2023/10/12 12:26:46;;;;;;;4.50;4.10;;;22.70;57.90;;;;;;5034573;28;20769;-64
2023/10/12 12:29:15;;;;;;;3.53;2.67;;;22.70;57.90;;;;;;5034244;28;20411;-67
2023/10/12 12:31:41;;;;;;;3.03;2.73;;;22.70;57.90;;;;;;5034436;28;20858;-66
2023/10/12 12:34:06;;;;;;;3.50;3.10;;;22.70;57.90;;;;;;5034493;28;20438;-66
2023/10/12 12:36:32;;;;;;;4.23;2.73;;;22.70;57.90;;;;;;5033997;28;20657;-64
2023/10/12 12:39:00;;;;;;;4.20;3.47;;;22.70;57.90;;;;;;5034088;28;20179;-66
2023/10/12 12:41:26;;;;;;;3.50;2.90;;;22.70;57.90;;;;;;5034030;28;20457;-66
2023/10/12 12:43:53;;;;;;;3.90;3.50;;;22.70;57.90;;;;;;5033974;28;20814;-66
2023/10/12 12:46:19;;;;;;;5.63;3.17;;;22.70;57.90;;;;;;5034044;28;20441;-67
2023/10/12 12:48:49;;;;;;;3.00;2.70;;;22.70;57.90;;;;;;5034658;28;20997;-65
2023/10/12 12:51:16;;;;;;;4.00;3.00;;;22.70;57.90;;;;;;5034529;28;20394;-67
2023/10/12 12:53:46;;;;;;;3.63;3.00;;;22.70;57.90;;;;;;5033573;28;20454;-66
2023/10/12 12:56:14;;;;;;;4.00;3.20;;;22.70;57.90;;;;;;5033957;28;20934;-66
2023/10/12 12:58:51;;;;;;;4.70;3.37;;;22.70;57.90;;;;;;5033949;28;20414;-67
2023/10/12 13:01:18;;;;;;;3.40;3.10;;;22.70;57.90;;;;;;5016110;28;20909;-66
2023/10/12 13:03:45;;;;;;;4.03;3.53;;;22.70;57.90;;;;;;5034170;28;20525;-65
2023/10/12 13:06:12;;;;;;;4.07;2.80;;;22.70;57.90;;;;;;5034263;28;20410;-64
2023/10/12 13:08:38;;;;;;;3.43;2.77;;;22.70;57.90;;;;;;5033946;28;20418;-64
2023/10/12 13:11:04;;;;;;;3.90;3.00;;;22.70;57.90;;;;;;5033444;28;20978;-66
2023/10/12 13:13:33;;;;;;;3.93;2.90;;;22.70;58.00;;;;;;5033688;28;20438;-65
2023/10/12 13:16:05;;;;;;;3.30;3.00;;;22.70;58.00;;;;;;5033560;28;20449;-65
2023/10/12 13:18:32;;;;;;;3.70;3.40;;;22.70;58.00;;;;;;5033371;28;20383;-66
2023/10/12 13:20:59;;;;;;;3.53;3.00;;;22.70;58.00;;;;;;5033475;28;20449;-65
2023/10/12 13:23:25;;;;;;;3.40;3.03;;;22.70;58.00;;;;;;5033314;28;20403;-66
2023/10/12 13:25:50;;;;;;;4.00;3.60;;;22.70;58.00;;;;;;5033396;28;20467;-67
2023/10/12 13:28:16;;;;;;;3.87;3.20;;;22.70;58.00;;;;;;5033257;28;20241;-66
2023/10/12 13:30:43;;;;;;;3.97;3.13;;;22.70;58.00;;;;;;5013584;28;20278;-67
2023/10/12 13:33:11;;;;;;;3.30;3.00;;;22.70;58.00;;;;;;5012612;28;20238;-67
2023/10/12 13:38:10;;;;;;;3.63;3.13;;;22.70;58.00;;;;;;5019560;28;20419;-68
2023/10/12 13:40:39;;;;;;;4.27;3.10;;;22.70;58.10;;;;;;5013149;28;20525;-66
2023/10/12 13:43:14;;;;;;;3.13;2.70;;;22.60;58.00;;;;;;5013820;28;20963;-66
2023/10/12 13:45:50;;;;;;;4.40;3.73;;;22.70;58.10;;;;;;5013859;28;20414;-66
2023/10/12 13:48:25;;;;;;;3.90;3.10;;;22.70;58.10;;;;;;4995657;28;20434;-67
2023/10/12 13:50:53;;;;;;;3.50;2.67;;;22.70;58.10;;;;;;5013863;28;20490;-67
2023/10/12 13:53:24;;;;;;;3.83;3.13;;;22.70;58.10;;;;;;5013347;28;20407;-66
2023/10/12 13:55:50;;;;;;;3.20;2.90;;;22.60;58.10;;;;;;5013207;28;20406;-66
2023/10/12 13:58:16;;;;;;;3.07;2.87;;;22.60;58.00;;;;;;5013429;28;20912;-66
2023/10/12 14:00:42;;;;;;;3.40;3.07;;;22.70;58.10;;;;;;5013115;28;20463;-66
2023/10/12 14:03:17;;;;;;;3.13;2.70;;;22.60;58.10;;;;;;4995719;28;20176;-64
2023/10/12 14:05:43;;;;;;;3.33;2.70;;;22.60;58.10;;;;;;5013140;28;20441;-67
2023/10/12 14:08:10;;;;;;;3.40;3.10;;;22.60;58.10;;;;;;5012972;28;20461;-65
2023/10/12 14:10:44;;;;;;;3.30;2.90;;;22.70;58.10;;;;;;5014951;28;20481;-66
2023/10/12 14:13:12;;;;;;;3.50;3.20;;;22.60;58.10;;;;;;5015241;28;20415;-67
2023/10/12 14:15:38;;;;;;;4.43;3.40;;;22.60;58.10;;;;;;5016802;28;20426;-65
2023/10/12 14:18:04;;;;;;;3.30;2.80;;;22.60;58.10;;;;;;5017058;28;20412;-66
2023/10/12 14:20:33;;;;;;;3.27;2.97;;;22.60;58.10;;;;;;5017270;28;20214;-65
2023/10/12 14:23:06;;;;;;;3.37;2.83;;;22.60;58.10;;;;;;5016581;28;20411;-66
2023/10/12 14:25:42;;;;;;;4.17;3.03;;;22.60;58.10;;;;;;5016977;28;20490;-65
2023/10/12 14:28:11;;;;;;;4.30;2.70;;;22.70;58.20;;;;;;5016814;28;20395;-65
2023/10/12 14:30:38;;;;;;;3.03;2.70;;;22.60;58.10;;;;;;5016760;28;20815;-64
2023/10/12 14:33:06;;;;;;;3.23;2.93;;;22.60;58.10;;;;;;5017053;28;20415;-66
2023/10/12 14:35:39;;;;;;;3.87;2.90;;;22.60;58.10;;;;;;5016009;28;20459;-65
2023/10/12 14:38:13;;;;;;;3.83;2.70;;;22.60;58.10;;;;;;5016775;28;20442;-66
2023/10/12 14:40:42;;;;;;;3.83;3.20;;;22.60;58.20;;;;;;5017681;28;20439;-66
2023/10/12 14:43:12;;;;;;;3.70;2.93;;;22.60;58.20;;;;;;5016907;28;20426;-65
2023/10/12 14:45:43;;;;;;;3.07;2.43;;;22.60;58.20;;;;;;5016281;28;20411;-66
2023/10/12 14:48:12;;;;;;;4.10;3.07;;;22.60;58.20;;;;;;5018098;28;20441;-66
2023/10/12 14:50:43;;;;;;;3.70;2.87;;;22.60;58.20;;;;;;5017544;28;20428;-65
2023/10/12 14:53:16;;;;;;;4.67;2.73;;;22.60;58.20;;;;;;5016471;28;20403;-69
2023/10/12 14:55:43;;;;;;;3.33;3.00;;;22.60;58.20;;;;;;5015179;28;20999;-69
2023/10/12 14:58:09;;;;;;;3.87;3.20;;;22.60;58.20;;;;;;5016521;28;20822;-68
2023/10/12 15:00:35;;;;;;;3.47;2.90;;;22.60;58.30;;;;;;5017311;28;20486;-67
2023/10/12 15:03:01;;;;;;;4.53;2.83;;;22.60;58.30;;;;;;5017671;28;20465;-68
2023/10/12 15:05:32;;;;;;;4.03;2.97;;;22.60;58.30;;;;;;5017120;28;20517;-68
2023/10/12 15:07:58;;;;;;;3.50;3.20;;;22.60;58.30;;;;;;5014768;28;20396;-69
2023/10/12 15:10:25;;;;;;;3.20;2.80;;;22.60;58.30;;;;;;5015489;28;20415;-68
2023/10/12 15:12:51;;;;;;;3.17;2.60;;;22.60;58.30;;;;;;5017452;28;20419;-68
2023/10/12 15:15:29;;;;;;;3.40;2.60;;;22.60;58.30;;;;;;5017856;28;20445;-68
2023/10/12 15:17:54;;;;;;;3.50;2.83;;;22.60;58.30;;;;;;5015099;28;20399;-68
2023/10/12 15:20:22;;;;;;;4.00;3.50;;;22.60;58.30;;;;;;5015044;28;20535;-68